Time;durP1;ratioP1;P1;durP2;ratioP2;P2;SDS_P1;SDS_P2;PMS_P1;PMS_P2;Temp;Humidity;BMP_temperature;BMP_pressure;BME280_temperature;BME280_humidity;BME280_pressure;Samples;Min_cycle;Max_cycle;Signal;HPM_P1;HPM_P2
2024/03/25 00:01:25;;;;;;;3.30;1.10;;;;;;;5.26;100.00;99500.53;5058746;28;20256;-80
2024/03/25 00:03:51;;;;;;;3.60;1.00;;;;;;;5.21;100.00;99503.44;5051902;28;20205;-81
2024/03/25 00:06:18;;;;;;;2.00;1.23;;;;;;;5.16;100.00;99514.28;5051213;28;20267;-80
2024/03/25 00:08:45;;;;;;;1.73;0.87;;;;;;;5.12;100.00;99504.84;5053369;28;20751;-82
2024/03/25 00:11:11;;;;;;;3.37;1.03;;;;;;;5.09;100.00;99509.47;5058265;28;20209;-81
2024/03/25 00:13:37;;;;;;;1.20;0.80;;;;;;;5.07;100.00;99521.91;5053522;28;20232;-81
2024/03/25 00:16:06;;;;;;;3.77;1.00;;;;;;;5.05;100.00;99515.84;5057772;28;20288;-80
2024/03/25 00:18:31;;;;;;;4.10;1.43;;;;;;;5.03;100.00;99515.09;5054944;28;20316;-81
2024/03/25 00:20:58;;;;;;;3.17;1.03;;;;;;;5.05;100.00;99526.41;5051338;28;20249;-81
2024/03/25 00:23:24;;;;;;;2.37;1.00;;;;;;;5.06;100.00;99534.22;5055622;28;20661;-80
2024/03/25 00:25:52;;;;;;;1.93;1.20;;;;;;;5.08;100.00;99526.22;5054038;28;20213;-81
2024/03/25 00:28:18;;;;;;;1.67;0.83;;;;;;;5.08;100.00;99535.00;5049432;28;20284;-81
2024/03/25 00:30:45;;;;;;;2.13;0.90;;;;;;;5.08;100.00;99528.88;5061664;28;20268;-81
2024/03/25 00:33:11;;;;;;;1.83;1.10;;;;;;;5.02;100.00;99543.25;5051922;28;20313;-81
2024/03/25 00:35:38;;;;;;;2.07;0.80;;;;;;;5.02;100.00;99550.31;5049797;28;20284;-81
2024/03/25 00:38:04;;;;;;;2.83;0.90;;;;;;;4.99;100.00;99542.63;5050387;28;20325;-81
2024/03/25 00:40:30;;;;;;;2.13;1.00;;;;;;;4.92;100.00;99534.19;5051539;28;20207;-81
2024/03/25 00:42:57;;;;;;;4.33;0.90;;;;;;;4.87;100.00;99544.16;5055106;28;20316;-80
2024/03/25 00:45:25;;;;;;;3.33;1.13;;;;;;;4.85;100.00;99538.13;5049336;28;20229;-81
2024/03/25 00:47:51;;;;;;;0.93;0.80;;;;;;;4.82;100.00;99546.22;5055347;28;20231;-81
2024/03/25 00:50:18;;;;;;;3.80;0.97;;;;;;;4.82;100.00;99549.72;5051570;28;20206;-81
2024/03/25 00:52:43;;;;;;;2.50;1.20;;;;;;;4.83;100.00;99526.81;5046606;28;20254;-81
2024/03/25 00:55:10;;;;;;;5.00;0.90;;;;;;;4.82;100.00;99536.53;5043366;28;20689;-81
2024/03/25 00:57:36;;;;;;;4.33;1.20;;;;;;;4.81;100.00;99540.09;5053928;28;20757;-81
2024/03/25 01:00:05;;;;;;;2.50;1.40;;;;;;;4.79;100.00;99546.41;5053136;28;20213;-81
2024/03/25 01:02:31;;;;;;;3.00;1.47;;;;;;;4.77;100.00;99543.84;5055719;28;20222;-81
2024/03/25 01:04:59;;;;;;;2.03;1.33;;;;;;;4.80;100.00;99541.03;5053868;28;20657;-80
2024/03/25 01:07:25;;;;;;;3.53;1.40;;;;;;;4.80;100.00;99538.41;5053798;28;20260;-81
2024/03/25 01:09:51;;;;;;;4.03;1.63;;;;;;;4.82;100.00;99539.16;5062103;28;20206;-81
2024/03/25 01:12:17;;;;;;;5.10;1.80;;;;;;;4.84;100.00;99537.25;5053859;28;20260;-81
2024/03/25 01:14:44;;;;;;;7.10;1.80;;;;;;;4.84;100.00;99545.19;5061719;28;20209;-81
2024/03/25 01:17:11;;;;;;;4.27;1.73;;;;;;;4.86;100.00;99542.44;5060807;28;20213;-80
2024/03/25 01:19:38;;;;;;;8.00;2.57;;;;;;;4.83;100.00;99551.41;5052294;28;20227;-81
2024/03/25 01:22:04;;;;;;;3.13;1.97;;;;;;;4.86;100.00;99553.00;5053831;28;20229;-80
2024/03/25 01:24:31;;;;;;;4.07;1.57;;;;;;;4.87;100.00;99560.84;5054903;28;20209;-80
2024/03/25 01:26:57;;;;;;;5.80;2.40;;;;;;;4.85;100.00;99557.44;5057734;28;20670;-80
2024/03/25 01:29:23;;;;;;;2.43;1.70;;;;;;;4.87;100.00;99558.19;5060797;28;20296;-80
2024/03/25 01:31:49;;;;;;;5.23;1.50;;;;;;;4.91;100.00;99563.31;5054545;28;20241;-80
2024/03/25 01:34:17;;;;;;;6.17;1.83;;;;;;;4.92;100.00;99565.00;5055979;28;20201;-81
2024/03/25 01:36:43;;;;;;;4.53;2.50;;;;;;;4.91;100.00;99576.50;5058786;28;20213;-81
2024/03/25 01:39:09;;;;;;;4.33;1.60;;;;;;;4.92;100.00;99576.41;5052905;28;20225;-81
2024/03/25 01:41:35;;;;;;;3.27;1.77;;;;;;;4.92;100.00;99576.41;5054034;28;20215;-80
2024/03/25 01:44:02;;;;;;;3.70;1.83;;;;;;;4.94;100.00;99576.31;5057181;28;20205;-81
2024/03/25 01:46:29;;;;;;;6.07;2.00;;;;;;;4.92;100.00;99584.31;5056157;28;20212;-80
2024/03/25 01:48:58;;;;;;;4.50;1.60;;;;;;;4.91;100.00;99585.25;5057155;28;20258;-80
2024/03/25 01:51:25;;;;;;;5.73;1.63;;;;;;;4.92;100.00;99579.03;5056699;28;20578;-81
2024/03/25 01:53:54;;;;;;;3.03;1.40;;;;;;;4.91;100.00;99582.63;5054104;28;20233;-81
2024/03/25 01:56:22;;;;;;;5.63;1.93;;;;;;;4.91;100.00;99584.41;5052730;28;20285;-81
2024/03/25 01:58:49;;;;;;;2.80;1.40;;;;;;;4.92;100.00;99580.84;5058995;28;20663;-80
2024/03/25 02:01:15;;;;;;;4.90;1.60;;;;;;;4.91;100.00;99581.78;5050359;28;20224;-80
2024/03/25 02:03:42;;;;;;;4.33;1.50;;;;;;;4.92;100.00;99580.84;5054461;28;20567;-81
2024/03/25 02:06:13;;;;;;;5.17;1.53;;;;;;;4.92;100.00;99586.97;5056253;28;20228;-80
2024/03/25 02:08:42;;;;;;;3.20;1.20;;;;;;;4.94;100.00;99585.09;5050206;28;20202;-81
2024/03/25 02:11:09;;;;;;;6.77;1.70;;;;;;;4.95;100.00;99589.44;5057960;28;20580;-80
2024/03/25 02:13:36;;;;;;;2.63;1.30;;;;;;;4.97;100.00;99589.34;5052775;28;20282;-80
2024/03/25 02:16:02;;;;;;;4.97;1.73;;;;;;;4.95;100.00;99581.50;5052602;28;20230;-80
2024/03/25 02:18:30;;;;;;;4.63;1.70;;;;;;;4.93;100.00;99580.75;5056835;28;20241;-81
2024/03/25 02:20:56;;;;;;;5.77;1.63;;;;;;;4.95;100.00;99583.31;5058219;28;20210;-81
2024/03/25 02:23:23;;;;;;;2.97;1.30;;;;;;;4.97;100.00;99589.34;5056278;28;20346;-81
2024/03/25 02:25:51;;;;;;;5.67;2.20;;;;;;;4.95;100.00;99591.22;5057090;28;20232;-80
2024/03/25 02:28:17;;;;;;;5.77;2.00;;;;;;;4.96;100.00;99585.00;5051400;28;20305;-80
2024/03/25 02:30:43;;;;;;;4.87;1.97;;;;;;;4.95;100.00;99592.06;5049004;28;20233;-81
2024/03/25 02:33:10;;;;;;;8.30;1.80;;;;;;;4.91;100.00;99594.97;5054591;28;20257;-80
2024/03/25 02:35:38;;;;;;;3.30;1.87;;;;;;;4.89;100.00;99602.97;5052902;28;20209;-80
2024/03/25 02:38:05;;;;;;;4.27;1.80;;;;;;;4.84;100.00;99597.94;5049128;28;20206;-81
2024/03/25 02:40:31;;;;;;;5.37;2.10;;;;;;;4.83;100.00;99598.91;5050475;28;20264;-81
2024/03/25 02:43:00;;;;;;;6.20;2.57;;;;;;;4.79;100.00;99612.34;5055249;28;20717;-81
2024/03/25 02:45:26;;;;;;;6.57;1.60;;;;;;;4.76;100.00;99612.50;5053653;28;20238;-80
2024/03/25 02:47:52;;;;;;;6.37;2.23;;;;;;;4.72;100.00;99621.53;5057403;28;20217;-81
2024/03/25 02:50:18;;;;;;;4.33;1.50;;;;;;;4.70;100.00;99618.13;5058795;28;20662;-80
2024/03/25 02:52:45;;;;;;;5.17;2.00;;;;;;;4.69;100.00;99624.31;5055415;28;20224;-80
2024/03/25 02:55:10;;;;;;;6.83;1.47;;;;;;;4.67;100.00;99605.94;5055366;28;20201;-82
2024/03/25 02:57:37;;;;;;;5.57;1.70;;;;;;;4.67;100.00;99626.19;5052450;28;20632;-81
2024/03/25 03:00:05;;;;;;;5.43;1.40;;;;;;;4.62;100.00;99621.19;5058365;28;20225;-80
2024/03/25 03:02:32;;;;;;;4.50;1.57;;;;;;;4.61;100.00;99631.81;5057905;28;20247;-81
2024/03/25 03:04:57;;;;;;;4.73;1.70;;;;;;;4.57;100.00;99633.78;5060796;28;20304;-81
2024/03/25 03:07:24;;;;;;;5.03;1.53;;;;;;;4.55;100.00;99635.66;5054573;28;20198;-81
2024/03/25 03:09:50;;;;;;;4.70;1.57;;;;;;;4.55;100.00;99640.91;5055986;28;20202;-81
2024/03/25 03:12:16;;;;;;;3.00;1.20;;;;;;;4.53;100.00;99645.41;5058795;28;20256;-80
2024/03/25 03:14:42;;;;;;;4.80;1.83;;;;;;;4.53;100.00;99646.28;5062856;28;20216;-81
2024/03/25 03:17:10;;;;;;;4.17;1.40;;;;;;;4.52;100.00;99643.72;5059266;28;20213;-81
2024/03/25 03:19:36;;;;;;;3.87;1.50;;;;;;;4.50;100.00;99643.78;5057685;28;20248;-81
2024/03/25 03:22:03;;;;;;;3.67;1.70;;;;;;;4.50;100.00;99645.56;5054247;28;20225;-80
2024/03/25 03:24:28;;;;;;;3.97;1.50;;;;;;;4.48;100.00;99652.72;5053067;28;20230;-81
2024/03/25 03:26:55;;;;;;;3.83;1.27;;;;;;;4.50;100.00;99656.13;5052210;28;20233;-81
2024/03/25 03:29:21;;;;;;;4.17;1.67;;;;;;;4.49;100.00;99646.50;5053287;28;20243;-80
2024/03/25 03:31:47;;;;;;;3.63;1.30;;;;;;;4.50;100.00;99653.50;5056235;28;20221;-81
2024/03/25 03:34:14;;;;;;;6.33;1.77;;;;;;;4.53;100.00;99663.88;5057622;28;20208;-81
2024/03/25 03:36:41;;;;;;;4.80;2.27;;;;;;;4.53;100.00;99662.09;5057806;28;20212;-81
2024/03/25 03:39:08;;;;;;;6.37;2.13;;;;;;;4.51;100.00;99674.50;5056252;28;20613;-81
2024/03/25 03:41:35;;;;;;;3.57;1.50;;;;;;;4.53;100.00;99663.88;5057805;28;20218;-81
2024/03/25 03:44:01;;;;;;;4.47;1.53;;;;;;;4.53;100.00;99662.09;5067483;28;20735;-81
2024/03/25 03:46:28;;;;;;;6.10;1.40;;;;;;;4.55;100.00;99672.56;5057625;28;20201;-80
2024/03/25 03:48:53;;;;;;;4.87;1.73;;;;;;;4.58;100.00;99674.19;5059282;28;20244;-80
2024/03/25 03:51:21;;;;;;;6.17;2.10;;;;;;;4.60;100.00;99674.94;5054558;28;20206;-81
2024/03/25 03:53:47;;;;;;;5.33;1.47;;;;;;;4.59;100.00;99676.75;5056363;28;20241;-81
2024/03/25 03:56:14;;;;;;;3.87;1.53;;;;;;;4.59;100.00;99684.66;5061282;28;20210;-81
2024/03/25 03:58:39;;;;;;;5.10;2.03;;;;;;;4.59;100.00;99675.88;5057062;28;20257;-81
2024/03/25 04:01:15;;;;;;;2.17;1.30;;;;;;;4.60;100.00;99675.81;5062159;28;20205;-82
2024/03/25 04:03:41;;;;;;;6.77;1.80;;;;;;;4.62;100.00;99689.75;5060139;28;20248;-82
2024/03/25 04:06:10;;;;;;;8.20;2.47;;;;;;;4.61;100.00;99695.97;5052474;28;20206;-82
2024/03/25 04:08:37;;;;;;;4.13;1.90;;;;;;;4.60;100.00;99690.78;5059904;28;20201;-81
2024/03/25 04:11:05;;;;;;;3.70;1.30;;;;;;;4.60;100.00;99694.25;5058372;28;20213;-81
2024/03/25 04:13:31;;;;;;;5.93;1.60;;;;;;;4.57;100.00;99697.06;5057942;28;20745;-82
2024/03/25 04:16:02;;;;;;;4.40;1.13;;;;;;;4.56;100.00;99694.50;5061337;28;20233;-82
2024/03/25 04:18:28;;;;;;;5.73;1.37;;;;;;;4.54;100.00;99694.59;5057398;28;20225;-80
2024/03/25 04:20:55;;;;;;;4.83;1.30;;;;;;;4.51;100.00;99687.69;5059893;28;20269;-81
2024/03/25 04:23:20;;;;;;;4.27;1.73;;;;;;;4.52;100.00;99699.09;5053179;28;20645;-81
2024/03/25 04:25:48;;;;;;;3.63;1.30;;;;;;;4.51;100.00;99694.75;5053812;28;20202;-81
2024/03/25 04:28:14;;;;;;;2.07;1.10;;;;;;;4.50;100.00;99703.59;5053829;28;20243;-81
2024/03/25 04:30:41;;;;;;;3.90;1.40;;;;;;;4.50;100.00;99703.59;5056320;28;20804;-83
2024/03/25 04:33:06;;;;;;;4.40;1.80;;;;;;;4.51;100.00;99702.66;5054238;28;20249;-81
2024/03/25 04:35:33;;;;;;;4.97;1.67;;;;;;;4.50;100.00;99714.13;5058337;28;20237;-82
